Time;durP1;ratioP1;P1;durP2;ratioP2;P2;SDS_P1;SDS_P2;PMS_P1;PMS_P2;Temp;Humidity;BMP_temperature;BMP_pressure;BME280_temperature;BME280_humidity;BME280_pressure;Samples;Min_cycle;Max_cycle;Signal;HPM_P1;HPM_P2
2023/09/12 00:01:22;;;;;;;6.20;4.73;;;;;;;;;;5090877;28;20467;-65
2023/09/12 00:03:49;;;;;;;6.43;5.20;;;;;;;;;;5085203;28;20449;-64
2023/09/12 00:06:16;;;;;;;6.80;4.57;;;;;;;;;;5091160;28;20859;-65
2023/09/12 00:08:45;;;;;;;10.20;5.13;;;;;;;;;;5084947;28;20476;-65
2023/09/12 00:11:13;;;;;;;6.40;3.33;;;;;;;;;;5090851;28;20509;-64
2023/09/12 00:13:42;;;;;;;4.90;4.27;;;;;;;;;;5083961;28;20444;-65
2023/09/12 00:16:10;;;;;;;6.93;4.50;;;;;;;;;;5090332;28;20433;-65
2023/09/12 00:18:38;;;;;;;6.13;4.77;;;;;;;;;;5087255;28;20451;-64
2023/09/12 00:21:05;;;;;;;7.03;4.60;;;;;;;;;;5090607;28;20443;-65
2023/09/12 00:23:32;;;;;;;11.83;4.13;;;;;;;;;;5087189;28;20444;-64
2023/09/12 00:25:59;;;;;;;7.17;4.27;;;;;;;;;;5091442;28;20460;-64
2023/09/12 00:28:28;;;;;;;6.73;4.03;;;;;;;;;;5088047;28;20476;-64
2023/09/12 00:30:55;;;;;;;5.03;4.00;;;;;;;;;;5089560;28;20440;-64
2023/09/12 00:33:22;;;;;;;5.53;3.97;;;;;;;;;;5081654;28;20469;-64
2023/09/12 00:35:49;;;;;;;8.33;5.00;;;;;;;;;;5089359;28;20875;-64
2023/09/12 00:38:16;;;;;;;6.20;4.07;;;;;;;;;;5083229;28;20991;-65
2023/09/12 00:40:43;;;;;;;7.17;4.87;;;;;;;;;;5093995;28;20866;-64
2023/09/12 00:43:11;;;;;;;6.20;4.17;;;;;;;;;;5089787;28;20498;-64
2023/09/12 00:45:39;;;;;;;6.00;3.90;;;;;;;;;;5089525;28;20488;-65
2023/09/12 00:48:07;;;;;;;6.30;3.73;;;;;;;;;;5091981;28;20440;-64
2023/09/12 00:50:35;;;;;;;5.80;4.00;;;;;;;;;;5094263;28;20489;-65
2023/09/12 00:53:04;;;;;;;5.00;3.40;;;;;;;;;;5093850;28;20467;-66
2023/09/12 00:55:32;;;;;;;6.37;4.33;;;;;;;;;;5094449;28;20936;-64
2023/09/12 00:58:00;;;;;;;6.03;4.40;;;;;;;;;;5093679;28;20444;-65
2023/09/12 01:00:27;;;;;;;6.43;3.97;;;;;;;;;;5094088;28;20922;-64
2023/09/12 01:02:56;;;;;;;7.60;4.00;;;;;;;;;;5093898;28;20462;-64
2023/09/12 01:05:24;;;;;;;5.90;3.90;;;;;;;;;;5093813;28;20472;-64
2023/09/12 01:07:51;;;;;;;6.50;4.50;;;;;;;;;;5086081;28;20445;-64
2023/09/12 01:10:18;;;;;;;6.83;4.30;;;;;;;;;;5093737;28;20571;-65
2023/09/12 01:12:45;;;;;;;7.60;5.37;;;;;;;;;;5093456;28;20464;-65
2023/09/12 01:15:14;;;;;;;6.53;4.00;;;;;;;;;;5093361;28;20827;-65
2023/09/12 01:17:41;;;;;;;7.73;4.83;;;;;;;;;;5093411;28;20448;-65
2023/09/12 01:20:12;;;;;;;7.67;4.57;;;;;;;;;;5093233;28;20498;-65
2023/09/12 01:22:48;;;;;;;4.97;3.80;;;;;;;;;;5093115;28;20460;-65
2023/09/12 01:25:30;;;;;;;7.47;4.10;;;;;;;;;;5081667;28;20731;-65
2023/09/12 01:28:01;;;;;;;6.00;4.50;;;;;;;;;;5076435;28;20453;-62
2023/09/12 01:30:29;;;;;;;6.90;4.60;;;;;;;;;;5093202;28;20476;-64
2023/09/12 01:32:56;;;;;;;6.90;4.30;;;;;;;;;;5092832;28;20989;-64
2023/09/12 01:35:23;;;;;;;6.43;4.37;;;;;;;;;;5093368;28;20445;-64
2023/09/12 01:37:50;;;;;;;6.60;3.27;;;;;;;;;;5093195;28;20448;-64
2023/09/12 01:40:18;;;;;;;5.17;4.67;;;;;;;;;;5093546;28;20441;-64
2023/09/12 01:42:46;;;;;;;5.93;4.20;;;;;;;;;;5092688;28;20491;-63
2023/09/12 01:45:15;;;;;;;6.23;4.07;;;;;;;;;;5093115;28;20451;-65
2023/09/12 01:47:42;;;;;;;6.00;4.47;;;;;;;;;;5092785;28;20444;-64
2023/09/12 01:50:12;;;;;;;5.33;3.70;;;;;;;;;;5091971;28;20472;-64
2023/09/12 01:52:40;;;;;;;7.07;4.37;;;;;;;;;;5091952;28;20496;-64
2023/09/12 01:55:09;;;;;;;5.57;3.60;;;;;;;;;;5092572;28;20449;-64
2023/09/12 01:57:36;;;;;;;9.83;4.20;;;;;;;;;;5092767;28;20448;-64
2023/09/12 02:00:03;;;;;;;6.27;4.20;;;;;;;;;;5092249;28;20448;-64
2023/09/12 02:02:32;;;;;;;10.60;4.50;;;;;;;;;;5092902;28;20464;-64
2023/09/12 02:05:05;;;;;;;6.63;4.97;;;;;;;;;;5091846;28;20444;-64
2023/09/12 02:07:34;;;;;;;16.07;3.90;;;;;;;;;;5088826;28;20444;-63
2023/09/12 02:10:02;;;;;;;6.13;4.87;;;;;;;;;;5092558;28;20491;-63
2023/09/12 02:12:29;;;;;;;6.00;4.03;;;;;;;;;;5092799;28;20469;-64
2023/09/12 02:14:56;;;;;;;8.10;4.57;;;;;;;;;;5092300;28;20949;-64
2023/09/12 02:17:23;;;;;;;6.17;3.97;;;;;;;;;;5092445;28;20444;-64
2023/09/12 02:19:52;;;;;;;5.53;3.87;;;;;;;;;;5091182;28;20803;-63
2023/09/12 02:22:19;;;;;;;6.10;4.40;;;;;;;;;;5091801;28;20925;-65
2023/09/12 02:24:46;;;;;;;8.13;4.43;;;;;;;;;;5092443;28;20437;-64
2023/09/12 02:27:13;;;;;;;6.37;4.47;;;;;;;;;;5092056;28;20463;-64
2023/09/12 02:29:40;;;;;;;8.10;4.17;;;;;;;;;;5091957;28;20472;-64
2023/09/12 02:32:07;;;;;;;5.77;4.40;;;;;;;;;;5091959;28;20461;-64
2023/09/12 02:34:35;;;;;;;6.30;4.33;;;;;;;;;;5092379;28;20440;-64
2023/09/12 02:37:03;;;;;;;9.03;4.40;;;;;;;;;;5090274;28;20477;-65
2023/09/12 02:39:30;;;;;;;5.70;4.03;;;;;;;;;;5090511;28;20821;-65
2023/09/12 02:41:57;;;;;;;7.60;3.83;;;;;;;;;;5091374;28;20465;-64
2023/09/12 02:44:24;;;;;;;5.43;4.50;;;;;;;;;;5091845;28;20449;-64
2023/09/12 02:46:52;;;;;;;5.93;4.17;;;;;;;;;;5090891;28;20953;-65
2023/09/12 02:49:19;;;;;;;6.30;4.20;;;;;;;;;;5091567;28;20480;-65
2023/09/12 02:51:46;;;;;;;6.10;4.23;;;;;;;;;;5092036;28;20469;-65
2023/09/12 02:54:15;;;;;;;9.07;4.80;;;;;;;;;;5091650;28;20519;-65
2023/09/12 02:56:42;;;;;;;7.37;3.93;;;;;;;;;;5091033;28;20519;-65
2023/09/12 02:59:09;;;;;;;6.50;4.07;;;;;;;;;;5077340;28;20517;-64
2023/09/12 03:01:37;;;;;;;6.40;4.10;;;;;;;;;;5090747;28;20457;-64
2023/09/12 03:04:04;;;;;;;6.00;4.30;;;;;;;;;;5071079;28;20552;-64
2023/09/12 03:06:31;;;;;;;7.07;4.63;;;;;;;;;;5085577;28;20436;-65
2023/09/12 03:08:58;;;;;;;8.77;4.87;;;;;;;;;;5091287;28;20454;-64
2023/09/12 03:11:29;;;;;;;5.07;3.77;;;;;;;;;;5091784;28;20464;-64
2023/09/12 03:13:56;;;;;;;5.60;3.47;;;;;;;;;;5091318;28;20441;-64
2023/09/12 03:16:24;;;;;;;7.40;4.20;;;;;;;;;;5091010;28;20818;-64
2023/09/12 03:18:51;;;;;;;8.03;4.37;;;;;;;;;;5090185;28;20476;-63
2023/09/12 03:21:18;;;;;;;5.60;4.20;;;;;;;;;;5091049;28;20440;-65
2023/09/12 03:23:45;;;;;;;5.60;3.87;;;;;;;;;;5091662;28;20479;-65
2023/09/12 03:26:12;;;;;;;7.77;4.90;;;;;;;;;;5091319;28;20555;-65
2023/09/12 03:28:41;;;;;;;8.43;5.37;;;;;;;;;;5091728;28;20445;-64
2023/09/12 03:31:11;;;;;;;5.97;3.53;;;;;;;;;;5091264;28;20579;-65
2023/09/12 03:33:38;;;;;;;6.67;4.27;;;;;;;;;;5091518;28;20527;-64
2023/09/12 03:36:06;;;;;;;6.00;4.60;;;;;;;;;;5088988;28;20449;-64
2023/09/12 03:38:33;;;;;;;6.00;5.20;;;;;;;;;;5091081;28;20926;-64
2023/09/12 03:41:00;;;;;;;7.00;4.87;;;;;;;;;;5090785;28;20440;-64
2023/09/12 03:43:27;;;;;;;6.00;3.80;;;;;;;;;;5090766;28;20436;-64
2023/09/12 03:45:56;;;;;;;5.57;4.43;;;;;;;;;;5091496;28;20448;-64
2023/09/12 03:48:23;;;;;;;7.43;3.83;;;;;;;;;;5091246;28;20444;-65
2023/09/12 03:50:50;;;;;;;4.87;4.17;;;;;;;;;;5090996;28;20887;-64
2023/09/12 03:53:17;;;;;;;7.60;4.00;;;;;;;;;;5090542;28;20487;-64
2023/09/12 03:55:44;;;;;;;6.90;4.67;;;;;;;;;;5090453;28;20814;-64
2023/09/12 03:58:12;;;;;;;6.10;4.10;;;;;;;;;;5090656;28;20432;-65
2023/09/12 04:00:39;;;;;;;9.10;4.93;;;;;;;;;;5091005;28;20455;-64
2023/09/12 04:03:07;;;;;;;7.37;4.30;;;;;;;;;;5090978;28;20471;-65
2023/09/12 04:05:34;;;;;;;6.00;4.07;;;;;;;;;;5090856;28;20466;-65
2023/09/12 04:08:01;;;;;;;6.53;3.90;;;;;;;;;;5090878;28;20519;-65
2023/09/12 04:10:28;;;;;;;5.73;3.77;;;;;;;;;;5089880;28;20859;-65
2023/09/12 04:12:55;;;;;;;7.30;4.23;;;;;;;;;;5090211;28;20620;-65
2023/09/12 04:15:22;;;;;;;6.87;4.27;;;;;;;;;;5092176;28;20449;-65
2023/09/12 04:17:49;;;;;;;6.73;3.93;;;;;;;;;;5095292;28;20801;-65
2023/09/12 04:20:18;;;;;;;7.70;4.23;;;;;;;;;;5094653;28;20490;-64
2023/09/12 04:22:45;;;;;;;5.80;4.33;;;;;;;;;;5094649;28;20460;-64
2023/09/12 04:25:12;;;;;;;6.80;4.50;;;;;;;;;;5094610;28;20440;-65
2023/09/12 04:27:40;;;;;;;6.97;4.60;;;;;;;;;;5093768;28;20436;-64
2023/09/12 04:30:07;;;;;;;6.53;4.00;;;;;;;;;;5093930;28;20557;-65
2023/09/12 04:32:34;;;;;;;5.27;3.50;;;;;;;;;;5094735;28;20468;-65
2023/09/12 04:35:01;;;;;;;5.47;4.13;;;;;;;;;;5094023;28;20464;-65
2023/09/12 04:37:30;;;;;;;5.87;3.90;;;;;;;;;;5094288;28;20467;-64
2023/09/12 04:39:57;;;;;;;9.77;4.90;;;;;;;;;;5094345;28;20441;-62
2023/09/12 04:42:24;;;;;;;7.10;4.90;;;;;;;;;;5094513;28;20850;-65
2023/09/12 04:44:52;;;;;;;6.40;4.00;;;;;;;;;;5094443;28;20436;-65
2023/09/12 04:47:19;;;;;;;6.27;4.30;;;;;;;;;;5092291;28;20953;-66
2023/09/12 04:49:46;;;;;;;6.90;4.53;;;;;;;;;;5094151;28;20476;-66
2023/09/12 04:52:13;;;;;;;6.63;4.57;;;;;;;;;;5093986;28;20461;-65
2023/09/12 04:54:41;;;;;;;6.70;4.27;;;;;;;;;;5093777;28;20437;-65
2023/09/12 04:57:09;;;;;;;5.27;3.90;;;;;;;;;;5094242;28;20535;-65
2023/09/12 04:59:36;;;;;;;11.07;4.33;;;;;;;;;;5093930;28;20987;-65
2023/09/12 05:02:03;;;;;;;7.67;4.77;;;;;;;;;;5094016;28;20517;-66
2023/09/12 05:04:30;;;;;;;11.23;4.30;;;;;;;;;;5093927;28;20483;-64
2023/09/12 05:06:57;;;;;;;5.37;4.50;;;;;;;;;;5092502;28;20433;-65
2023/09/12 05:09:24;;;;;;;5.30;4.33;;;;;;;;;;5093975;28;20494;-66
2023/09/12 05:11:52;;;;;;;6.80;4.53;;;;;;;;;;5093349;28;20488;-66
2023/09/12 05:14:19;;;;;;;6.07;4.70;;;;;;;;;;5093635;28;20444;-65
2023/09/12 05:16:46;;;;;;;7.73;4.40;;;;;;;;;;5093448;28;20444;-66
2023/09/12 05:19:13;;;;;;;5.87;4.20;;;;;;;;;;5093743;28;20448;-66
2023/09/12 05:21:40;;;;;;;6.77;4.43;;;;;;;;;;5093445;28;20468;-66
2023/09/12 05:24:07;;;;;;;7.40;3.90;;;;;;;;;;5093042;28;20445;-65
2023/09/12 05:26:35;;;;;;;4.90;4.23;;;;;;;;;;5093246;28;20450;-66
2023/09/12 05:29:03;;;;;;;6.00;4.03;;;;;;;;;;5093440;28;20441;-65
2023/09/12 05:31:31;;;;;;;9.87;4.77;;;;;;;;;;5092815;28;20484;-65
2023/09/12 05:33:58;;;;;;;11.77;6.03;;;;;;;;;;5093593;28;20444;-65
2023/09/12 05:36:25;;;;;;;6.97;4.00;;;;;;;;;;5093196;28;20473;-65
2023/09/12 05:38:52;;;;;;;5.80;3.90;;;;;;;;;;5093281;28;20818;-65
2023/09/12 05:41:20;;;;;;;5.83;4.40;;;;;;;;;;5093263;28;20940;-65
2023/09/12 05:43:47;;;;;;;6.83;4.40;;;;;;;;;;5091949;28;20510;-65
2023/09/12 05:46:15;;;;;;;9.13;4.13;;;;;;;;;;5092922;28;20444;-65
2023/09/12 05:48:42;;;;;;;4.47;3.77;;;;;;;;;;5092026;28;20445;-66
2023/09/12 05:51:09;;;;;;;6.83;4.90;;;;;;;;;;5090347;28;20480;-65
2023/09/12 05:53:36;;;;;;;5.87;4.10;;;;;;;;;;5093232;28;20641;-65
2023/09/12 05:56:03;;;;;;;6.10;4.10;;;;;;;;;;5092528;28;20816;-65
2023/09/12 05:58:30;;;;;;;6.10;4.50;;;;;;;;;;5093505;28;20444;-65
2023/09/12 06:00:57;;;;;;;7.00;5.00;;;;;;;;;;5091988;28;20464;-65
2023/09/12 06:03:26;;;;;;;5.50;4.10;;;;;;;;;;5091766;28;20448;-65
2023/09/12 06:05:53;;;;;;;6.20;4.50;;;;;;;;;;5093029;28;20451;-65
2023/09/12 06:08:20;;;;;;;7.30;5.10;;;;;;;;;;5092497;28;20500;-65
2023/09/12 06:10:48;;;;;;;8.27;4.30;;;;;;;;;;5092302;28;20479;-65
2023/09/12 06:13:15;;;;;;;6.87;4.80;;;;;;;;;;5092663;28;20608;-65
2023/09/12 06:15:42;;;;;;;6.60;4.30;;;;;;;;;;5092313;28;20486;-66
2023/09/12 06:18:09;;;;;;;8.93;4.60;;;;;;;;;;5092444;28;20478;-66
2023/09/12 06:20:38;;;;;;;5.90;4.47;;;;;;;;;;5092251;28;20522;-66
2023/09/12 06:23:07;;;;;;;6.57;4.77;;;;;;;;;;5092083;28;20457;-66
2023/09/12 06:25:35;;;;;;;7.60;4.93;;;;;;;;;;5092476;28;20441;-66
2023/09/12 06:28:02;;;;;;;5.80;4.27;;;;;;;;;;5089928;28;20448;-66
2023/09/12 06:30:29;;;;;;;8.43;4.73;;;;;;;;;;5092435;28;20826;-66
2023/09/12 06:32:56;;;;;;;5.90;5.10;;;;;;;;;;5092323;28;20467;-66
2023/09/12 06:35:23;;;;;;;6.70;4.90;;;;;;;;;;5078940;28;20436;-65
2023/09/12 06:37:51;;;;;;;7.23;4.47;;;;;;;;;;5091595;28;20452;-65
2023/09/12 06:40:18;;;;;;;5.40;4.20;;;;;;;;;;5091487;28;20849;-65
2023/09/12 06:42:45;;;;;;;6.63;4.70;;;;;;;;;;5090808;28;20846;-65
2023/09/12 06:45:12;;;;;;;9.93;4.53;;;;;;;;;;5091899;28;20439;-65
2023/09/12 06:47:39;;;;;;;6.83;4.83;;;;;;;;;;5091724;28;20439;-65
2023/09/12 06:50:07;;;;;;;10.13;5.77;;;;;;;;;;5091527;28;20444;-65
2023/09/12 06:52:34;;;;;;;8.17;4.37;;;;;;;;;;5091302;28;20459;-65
2023/09/12 06:55:03;;;;;;;7.23;4.83;;;;;;;;;;5091441;28;20507;-65
2023/09/12 06:57:30;;;;;;;5.40;4.77;;;;;;;;;;5091427;28;20498;-65
2023/09/12 06:59:57;;;;;;;6.93;5.43;;;;;;;;;;5091721;28;20437;-65
2023/09/12 07:02:25;;;;;;;9.40;5.07;;;;;;;;;;5090900;28;21071;-65
2023/09/12 07:04:52;;;;;;;6.40;4.83;;;;;;;;;;5091371;28;20448;-65
2023/09/12 07:07:20;;;;;;;8.33;5.67;;;;;;;;;;5091973;28;20455;-65
2023/09/12 07:09:47;;;;;;;7.83;4.93;;;;;;;;;;5092187;28;20448;-65
2023/09/12 07:12:16;;;;;;;6.90;4.63;;;;;;;;;;5090561;28;20912;-65
2023/09/12 07:14:43;;;;;;;7.97;5.17;;;;;;;;;;5091604;28;20440;-65
2023/09/12 07:17:10;;;;;;;8.07;5.50;;;;;;;;;;5091295;28;20440;-65
2023/09/12 07:19:37;;;;;;;8.87;5.20;;;;;;;;;;5091071;28;20452;-65
2023/09/12 07:22:05;;;;;;;9.87;5.87;;;;;;;;;;5091374;28;20460;-65
2023/09/12 07:24:32;;;;;;;8.90;5.90;;;;;;;;;;5090517;28;20456;-65
2023/09/12 07:26:59;;;;;;;9.50;5.53;;;;;;;;;;5078556;28;20433;-65
2023/09/12 07:29:28;;;;;;;8.90;6.17;;;;;;;;;;5091431;28;20439;-65
2023/09/12 07:31:55;;;;;;;9.67;6.10;;;;;;;;;;5077555;28;20571;-65
2023/09/12 07:34:23;;;;;;;8.50;5.70;;;;;;;;;;5091424;28;20444;-65
2023/09/12 07:36:51;;;;;;;8.67;5.30;;;;;;;;;;5091242;28;20502;-65
2023/09/12 07:39:18;;;;;;;7.40;5.37;;;;;;;;;;5090458;28;20444;-65
2023/09/12 07:41:45;;;;;;;7.50;5.50;;;;;;;;;;5090454;28;20539;-65
2023/09/12 07:44:15;;;;;;;6.43;5.13;;;;;;;;;;5091757;28;20979;-65
2023/09/12 07:46:43;;;;;;;10.50;5.20;;;;;;;;;;5091587;28;20444;-65
2023/09/12 07:49:10;;;;;;;10.27;5.80;;;;;;;;;;5092122;28;20456;-65
2023/09/12 07:51:37;;;;;;;7.50;5.30;;;;;;;;;;5095343;28;20869;-65
2023/09/12 07:54:05;;;;;;;7.07;4.67;;;;;;;;;;5095185;28;20797;-64
2023/09/12 07:56:32;;;;;;;8.37;4.93;;;;;;;;;;5095272;28;21055;-65
2023/09/12 07:58:59;;;;;;;8.60;5.77;;;;;;;;;;5092475;28;20463;-65
2023/09/12 08:01:27;;;;;;;9.17;5.80;;;;;;;;;;5094436;28;20456;-65
2023/09/12 08:03:56;;;;;;;6.63;5.50;;;;;;;;;;5095289;28;20895;-65
2023/09/12 08:06:25;;;;;;;7.57;5.20;;;;;;;;;;5095020;28;20501;-65
2023/09/12 08:08:52;;;;;;;8.07;5.57;;;;;;;;;;5094285;28;20479;-66
2023/09/12 08:11:19;;;;;;;6.43;5.47;;;;;;;;;;5095018;28;20848;-65
2023/09/12 08:13:52;;;;;;;8.40;4.90;;;;;;;;;;5095075;28;20440;-66
2023/09/12 08:16:19;;;;;;;16.07;6.00;;;;;;;;;;5094922;28;20447;-65
2023/09/12 08:18:46;;;;;;;5.90;5.00;;;;;;;;;;5093562;28;20443;-65
2023/09/12 08:21:14;;;;;;;6.07;5.47;;;;;;;;;;5094668;28;20439;-65
2023/09/12 08:23:41;;;;;;;5.90;4.83;;;;;;;;;;5095036;28;20444;-66
2023/09/12 08:26:09;;;;;;;7.03;5.30;;;;;;;;;;5093715;28;20451;-66
2023/09/12 08:28:36;;;;;;;7.13;5.83;;;;;;;;;;5094966;28;20455;-66
2023/09/12 08:31:03;;;;;;;10.50;5.57;;;;;;;;;;5094544;28;20480;-66
2023/09/12 08:33:30;;;;;;;8.00;5.73;;;;;;;;;;5093826;28;20433;-65
2023/09/12 08:35:57;;;;;;;7.23;5.00;;;;;;;;;;5093761;28;20839;-66
2023/09/12 08:38:26;;;;;;;5.80;4.33;;;;;;;;;;5093828;28;20861;-65
2023/09/12 08:40:53;;;;;;;6.70;5.50;;;;;;;;;;5094372;28;20440;-66
2023/09/12 08:43:21;;;;;;;10.57;5.33;;;;;;;;;;5093636;28;20456;-65
2023/09/12 08:45:48;;;;;;;8.27;5.23;;;;;;;;;;5094137;28;20467;-65
2023/09/12 08:48:17;;;;;;;6.53;4.80;;;;;;;;;;5094339;28;20526;-65
2023/09/12 08:50:44;;;;;;;7.80;5.90;;;;;;;;;;5093991;28;20995;-65
2023/09/12 08:53:11;;;;;;;9.90;6.40;;;;;;;;;;5094371;28;20509;-64
2023/09/12 08:55:40;;;;;;;9.07;6.37;;;;;;;;;;5092727;28;20546;-65
2023/09/12 08:58:07;;;;;;;9.03;6.00;;;;;;;;;;5094004;28;20827;-64
2023/09/12 09:00:35;;;;;;;9.20;6.07;;;;;;;;;;5093424;28;20451;-65
2023/09/12 09:03:03;;;;;;;7.77;5.30;;;;;;;;;;5093371;28;20492;-65
2023/09/12 09:05:31;;;;;;;6.50;5.73;;;;;;;;;;5075526;28;20483;-65
2023/09/12 09:08:00;;;;;;;9.43;5.67;;;;;;;;;;5093988;28;20440;-65
2023/09/12 09:10:32;;;;;;;7.20;5.40;;;;;;;;;;5093638;28;20444;-65
2023/09/12 09:13:00;;;;;;;7.50;5.77;;;;;;;;;;5093003;28;20514;-65
2023/09/12 09:15:28;;;;;;;7.90;5.93;;;;;;;;;;5093993;28;20437;-65
2023/09/12 09:17:55;;;;;;;7.33;5.40;;;;;;;;;;5092948;28;20813;-65
2023/09/12 09:20:23;;;;;;;7.70;5.40;;;;;;;;;;5094092;28;20828;-66
2023/09/12 09:22:57;;;;;;;8.53;5.10;;;;;;;;;;5093798;28;20456;-67
2023/09/12 09:25:24;;;;;;;8.17;5.27;;;;;;;;;;5080352;28;20479;-66
2023/09/12 09:27:51;;;;;;;6.10;5.23;;;;;;;;;;5093669;28;20436;-66
2023/09/12 09:30:20;;;;;;;8.33;5.03;;;;;;;;;;5091934;28;20435;-66
2023/09/12 09:32:47;;;;;;;8.40;5.60;;;;;;;;;;5093505;28;20487;-66
2023/09/12 09:35:14;;;;;;;6.60;5.17;;;;;;;;;;5093242;28;20875;-66
2023/09/12 09:37:42;;;;;;;8.20;6.87;;;;;;;;;;5093398;28;20443;-65
2023/09/12 09:40:10;;;;;;;7.23;5.57;;;;;;;;;;5093337;28;20444;-64
2023/09/12 09:42:38;;;;;;;6.87;5.17;;;;;;;;;;5093239;28;20460;-66
2023/09/12 09:45:05;;;;;;;5.77;4.80;;;;;;;;;;5093682;28;20439;-66
2023/09/12 09:47:34;;;;;;;7.17;6.37;;;;;;;;;;5091803;28;20956;-66
2023/09/12 09:50:01;;;;;;;7.53;5.50;;;;;;;;;;5092467;28;20435;-65
2023/09/12 09:52:28;;;;;;;7.50;6.20;;;;;;;;;;5092406;28;20501;-66
2023/09/12 09:54:55;;;;;;;7.03;5.40;;;;;;;;;;5092989;28;20432;-66
2023/09/12 09:57:27;;;;;;;7.00;5.00;;;;;;;;;;5092995;28;20458;-67
2023/09/12 09:59:54;;;;;;;8.60;6.53;;;;;;;;;;5093771;28;20436;-66
2023/09/12 10:02:22;;;;;;;7.93;5.53;;;;;;;;;;5092865;28;20816;-66
2023/09/12 10:04:52;;;;;;;6.40;5.47;;;;;;;;;;5092779;28;20448;-66
2023/09/12 10:07:19;;;;;;;9.17;6.03;;;;;;;;;;5092106;28;20440;-65
2023/09/12 10:09:46;;;;;;;7.07;5.97;;;;;;;;;;5092606;28;20469;-66
2023/09/12 10:12:14;;;;;;;8.80;6.87;;;;;;;;;;5091815;28;20490;-66
2023/09/12 10:14:42;;;;;;;8.10;6.17;;;;;;;;;;5092889;28;20444;-65
2023/09/12 10:17:09;;;;;;;6.53;5.47;;;;;;;;;;5093090;28;20441;-65
2023/09/12 10:19:39;;;;;;;11.07;6.63;;;;;;;;;;5092540;28;20451;-65
2023/09/12 10:22:14;;;;;;;6.60;5.60;;;;;;;;;;5091686;28;20456;-65
2023/09/12 10:24:42;;;;;;;8.20;5.20;;;;;;;;;;5091196;28;20502;-65
2023/09/12 10:27:09;;;;;;;9.87;5.57;;;;;;;;;;5092253;28;20459;-66
2023/09/12 10:29:36;;;;;;;6.50;5.80;;;;;;;;;;5092366;28;20484;-66
2023/09/12 10:32:04;;;;;;;6.20;5.27;;;;;;;;;;5092074;28;20484;-65
2023/09/12 10:34:32;;;;;;;7.93;6.47;;;;;;;;;;5092632;28;20949;-65
2023/09/12 10:36:59;;;;;;;11.13;6.60;;;;;;;;;;5092060;28;20439;-65
2023/09/12 10:39:28;;;;;;;8.30;5.97;;;;;;;;;;5091286;28;20483;-65
2023/09/12 10:41:55;;;;;;;6.63;5.93;;;;;;;;;;5091273;28;20560;-65
2023/09/12 10:44:23;;;;;;;6.00;5.40;;;;;;;;;;5090982;28;20451;-66
2023/09/12 10:46:50;;;;;;;6.63;5.37;;;;;;;;;;5091898;28;20529;-65
2023/09/12 10:49:18;;;;;;;8.27;5.60;;;;;;;;;;5092049;28;20576;-65
2023/09/12 10:51:46;;;;;;;5.77;5.27;;;;;;;;;;5091182;28;20483;-65
2023/09/12 10:54:14;;;;;;;6.80;5.43;;;;;;;;;;5091938;28;20435;-65
2023/09/12 10:56:44;;;;;;;7.23;5.73;;;;;;;;;;5078142;28;20783;-65
2023/09/12 10:59:13;;;;;;;7.20;6.13;;;;;;;;;;5091521;28;20297;-65
2023/09/12 11:01:42;;;;;;;8.07;6.20;;;;;;;;;;5091354;28;20471;-65
2023/09/12 11:04:27;;;;;;;6.13;5.37;;;;;;;;;;5090613;28;20293;-65
2023/09/12 11:06:55;;;;;;;7.20;5.83;;;;;;;;;;5091317;28;20432;-64
2023/09/12 11:09:23;;;;;;;7.40;6.20;;;;;;;;;;5091587;28;20444;-65
2023/09/12 11:11:56;;;;;;;7.23;5.70;;;;;;;;;;5091701;28;20722;-65
2023/09/12 11:14:24;;;;;;;8.10;6.30;;;;;;;;;;5090850;28;20216;-65
2023/09/12 11:17:10;;;;;;;7.03;4.90;;;;;;;;;;5091168;28;20204;-65
2023/09/12 11:19:48;;;;;;;7.20;5.77;;;;;;;;;;5079664;28;20206;-66
2023/09/12 11:22:22;;;;;;;7.30;5.63;;;;;;;;;;5090191;28;20222;-65
2023/09/12 11:24:50;;;;;;;7.87;5.83;;;;;;;;;;5090798;28;20454;-66
2023/09/12 11:27:18;;;;;;;7.50;5.10;;;;;;;;;;5091490;28;20194;-65
2023/09/12 11:29:46;;;;;;;5.53;4.87;;;;;;;;;;5091757;28;20206;-66
2023/09/12 11:32:26;;;;;;;6.80;5.47;;;;;;;;;;5091129;28;20225;-66
2023/09/12 11:34:53;;;;;;;6.60;5.20;;;;;;;;;;5090493;28;20577;-65
2023/09/12 11:37:24;;;;;;;7.30;5.33;;;;;;;;;;5091288;28;20202;-64
2023/09/12 11:39:52;;;;;;;6.60;5.10;;;;;;;;;;5089933;28;20206;-65
2023/09/12 11:42:22;;;;;;;6.80;5.03;;;;;;;;;;5091196;28;20221;-65
2023/09/12 11:44:50;;;;;;;6.90;5.50;;;;;;;;;;5090967;28;20292;-65
2023/09/12 11:47:18;;;;;;;11.30;6.03;;;;;;;;;;5090373;28;20292;-65
2023/09/12 11:52:16;;;;;;;6.07;5.18;;;;;;;;;;5061333;28;20318;-67
2023/09/12 11:54:44;;;;;;;6.82;5.82;;;;;;;;;;5050519;28;20209;-68
2023/09/12 11:57:14;;;;;;;6.35;5.28;;;;;;;;;;5043253;28;20239;-68
2023/09/12 11:59:48;;;;;;;6.47;5.05;;;;;;;;;;5053623;28;20191;-68
2023/09/12 12:02:15;;;;;;;7.10;5.40;;;;;;;;;;5052581;28;20229;-68
2023/09/12 12:04:43;;;;;;;5.68;4.93;;;;;;;;;;5051967;28;20203;-68
2023/09/12 12:07:11;;;;;;;6.35;5.72;;;;;;;;;;5052114;28;20298;-67
2023/09/12 12:09:38;;;;;;;6.55;5.90;;;;;;;;;;5052206;28;20222;-67
2023/09/12 12:12:06;;;;;;;8.75;5.63;;;;;;;;;;5051530;28;20229;-67
2023/09/12 12:14:36;;;;;;;7.43;5.25;;;;;;;;;;5051609;28;20203;-68
2023/09/12 12:17:09;;;;;;;7.43;5.80;;;;;;;;;;5051380;28;20205;-67
2023/09/12 12:19:36;;;;;;;5.97;5.38;;;;;;;;;;5039363;28;20203;-68
2023/09/12 12:22:05;;;;;;;5.10;4.60;;;;;;;;;;5052109;28;20220;-68
2023/09/12 12:24:38;;;;;;;7.80;4.85;;;;;;;;;;5053581;28;20249;-68
2023/09/12 12:27:05;;;;;;;5.65;4.47;;;;;;;;;;5053989;28;20199;-68
2023/09/12 12:29:33;;;;;;;6.13;5.20;;;;;;;;;;5054454;28;20195;-68
2023/09/12 12:32:01;;;;;;;6.60;4.38;;;;;;;;;;5052383;28;20784;-68
2023/09/12 12:34:31;;;;;;;7.57;6.05;;;;;;;;;;5051803;28;20203;-68
2023/09/12 12:36:59;;;;;;;6.25;4.88;;;;;;;;;;5056068;28;20329;-68
2023/09/12 12:39:26;;;;;;;5.28;4.55;;;;;;;;;;5056211;28;20198;-68
2023/09/12 12:41:54;;;;;;;7.38;4.78;;;;;;;;;;5056334;28;20215;-68
2023/09/12 12:44:21;;;;;;;7.82;5.32;;;;;;;;;;5056392;28;20290;-66
2023/09/12 12:46:51;;;;;;;6.93;5.13;;;;;;;;;;5050109;28;20486;-67
2023/09/12 12:49:19;;;;;;;8.25;4.93;;;;;;;;;;5039337;28;20207;-67
2023/09/12 12:51:47;;;;;;;6.43;5.00;;;;;;;;;;5056063;28;20227;-68
2023/09/12 12:54:15;;;;;;;6.22;5.18;;;;;;;;;;5054877;28;20222;-67
2023/09/12 12:56:45;;;;;;;6.47;5.55;;;;;;;;;;5055889;28;20204;-67
2023/09/12 12:59:13;;;;;;;5.50;5.00;;;;;;;;;;5058212;28;20199;-67
2023/09/12 13:01:40;;;;;;;7.90;4.68;;;;;;;;;;5047798;28;20219;-67
2023/09/12 13:04:08;;;;;;;5.72;5.05;;;;;;;;;;5051932;28;20245;-67
2023/09/12 13:06:37;;;;;;;5.78;4.18;;;;;;;;;;5056399;28;20692;-67
2023/09/12 13:09:08;;;;;;;5.40;4.68;;;;;;;;;;5056577;28;20207;-67
2023/09/12 13:11:35;;;;;;;5.40;4.85;;;;;;;;;;5057158;28;20226;-67
2023/09/12 13:14:04;;;;;;;6.47;4.65;;;;;;;;;;5054770;28;20269;-67
2023/09/12 13:16:31;;;;;;;4.25;3.85;;;;;;;;;;5055177;28;20204;-67
2023/09/12 13:18:58;;;;;;;4.72;4.18;;;;;;;;;;5055432;28;20298;-68
2023/09/12 13:21:25;;;;;;;5.10;4.50;;;;;;;;;;5054333;28;20308;-67
2023/09/12 13:23:55;;;;;;;4.82;4.30;;;;;;;;;;5054327;28;20217;-67
2023/09/12 13:26:23;;;;;;;6.82;3.80;;;;;;;;;;5053494;28;20211;-67
2023/09/12 13:28:50;;;;;;;5.45;4.30;;;;;;;;;;5053997;28;20210;-67
2023/09/12 13:31:18;;;;;;;9.90;4.28;;;;;;;;;;5054378;28;20541;-67
2023/09/12 13:33:45;;;;;;;7.88;5.30;;;;;;;;;;5054055;28;20247;-67
2023/09/12 13:36:12;;;;;;;5.93;4.60;;;;;;;;;;5054364;28;20631;-67
2023/09/12 13:38:39;;;;;;;5.60;4.30;;;;;;;;;;5054674;28;20275;-67
2023/09/12 13:41:07;;;;;;;7.93;6.00;;;;;;;;;;5053517;28;20195;-67
2023/09/12 13:43:35;;;;;;;4.55;3.97;;;;;;;;;;5054213;28;20203;-67
2023/09/12 13:46:03;;;;;;;5.95;4.32;;;;;;;;;;5054181;28;20582;-67
2023/09/12 13:48:34;;;;;;;4.30;3.67;;;;;;;;;;5053411;28;20211;-67
2023/09/12 13:51:03;;;;;;;6.72;5.28;;;;;;;;;;5055969;28;20195;-67
2023/09/12 13:53:30;;;;;;;5.35;4.20;;;;;;;;;;5054589;28;20563;-67
2023/09/12 13:55:58;;;;;;;7.72;4.80;;;;;;;;;;5054256;28;20223;-67
2023/09/12 13:58:25;;;;;;;9.55;4.78;;;;;;;;;;5054058;28;20199;-67
2023/09/12 14:00:55;;;;;;;4.90;4.32;;;;;;;;;;5052926;28;20195;-67
2023/09/12 14:03:22;;;;;;;8.45;4.35;;;;;;;;;;5053510;28;20333;-67
2023/09/12 14:05:52;;;;;;;6.20;4.72;;;;;;;;;;5054240;28;20214;-67
2023/09/12 14:08:19;;;;;;;5.15;4.22;;;;;;;;;;5054074;28;20207;-67
2023/09/12 14:10:46;;;;;;;5.65;4.35;;;;;;;;;;5054252;28;20199;-68
2023/09/12 14:13:13;;;;;;;7.88;4.97;;;;;;;;;;5036562;28;20229;-68
2023/09/12 14:15:40;;;;;;;5.65;5.13;;;;;;;;;;5054828;28;20293;-67
2023/09/12 14:18:09;;;;;;;4.25;3.85;;;;;;;;;;5055080;28;20658;-67
2023/09/12 14:20:36;;;;;;;4.85;4.05;;;;;;;;;;5052349;28;20282;-68
2023/09/12 14:23:03;;;;;;;5.10;3.83;;;;;;;;;;5053545;28;20330;-67
2023/09/12 14:25:30;;;;;;;5.53;4.38;;;;;;;;;;5053640;28;20241;-67
2023/09/12 14:27:57;;;;;;;5.32;4.82;;;;;;;;;;5053865;28;20203;-68
2023/09/12 14:30:33;;;;;;;8.27;5.35;;;;;;;;;;5053151;28;20200;-68
2023/09/12 14:33:00;;;;;;;6.47;4.65;;;;;;;;;;5053270;28;20226;-68
2023/09/12 14:35:29;;;;;;;6.75;4.25;;;;;;;;;;5052851;28;20195;-67
2023/09/12 14:37:57;;;;;;;5.65;4.03;;;;;;;;;;5052983;28;20290;-68
2023/09/12 14:40:26;;;;;;;4.28;3.88;;;;;;;;;;5052482;28;20734;-68
2023/09/12 14:42:53;;;;;;;5.10;4.30;;;;;;;;;;5052876;28;20607;-67
2023/09/12 14:45:21;;;;;;;5.40;4.90;;;;;;;;;;5052909;28;20199;-69
2023/09/12 14:47:48;;;;;;;10.85;4.88;;;;;;;;;;5054033;28;20215;-67
2023/09/12 14:50:15;;;;;;;4.93;4.25;;;;;;;;;;5037666;28;20214;-67